Time;durP1;ratioP1;P1;durP2;ratioP2;P2;SDS_P1;SDS_P2;PMS_P1;PMS_P2;Temp;Humidity;BMP_temperature;BMP_pressure;BME280_temperature;BME280_humidity;BME280_pressure;Samples;Min_cycle;Max_cycle;Signal;HPM_P1;HPM_P2
2021/11/28 00:01:18;;;;;;;10.82;7.35;;;;;;;23.96;22.69;93127.81;5059600;28;20044;-52
2021/11/28 00:03:46;;;;;;;8.75;7.78;;;;;;;23.07;23.84;93130.59;5054187;28;20048;-52
2021/11/28 00:06:23;;;;;;;8.23;7.05;;;;;;;23.83;23.35;93126.81;5054496;28;20052;-49
2021/11/28 00:12:24;;;;;;;11.52;7.53;;;;;;;22.66;24.72;93120.63;5012203;28;20049;-52
2021/11/28 00:14:55;;;;;;;10.32;7.75;;;;;;;22.86;24.37;93098.81;5063382;28;20067;-54
2021/11/28 00:17:23;;;;;;;8.73;7.05;;;;;;;22.31;25.35;93086.25;5054224;28;20065;-51
2021/11/28 00:19:50;;;;;;;14.52;9.60;;;;;;;25.07;22.33;93121.69;5053794;28;20486;-50
2021/11/28 00:22:18;;;;;;;12.18;9.90;;;;;;;25.18;21.89;93114.25;5054513;28;20052;-52
2021/11/28 00:24:45;;;;;;;12.10;10.50;;;;;;;22.29;25.44;93109.84;5054188;28;20371;-52
2021/11/28 00:27:12;;;;;;;10.18;8.90;;;;;;;24.26;22.94;93118.28;5053818;28;20052;-51
2021/11/28 00:29:40;;;;;;;14.13;10.30;;;;;;;23.50;24.06;93119.53;5053904;28;20048;-51
2021/11/28 00:32:08;;;;;;;13.25;10.10;;;;;;;23.06;24.64;93116.53;5036562;28;20063;-51
2021/11/28 00:34:35;;;;;;;14.48;10.35;;;;;;;22.54;25.17;93121.09;5036442;28;20052;-52
2021/11/28 00:37:02;;;;;;;13.25;10.43;;;;;;;22.36;25.76;93121.19;5053530;28;20044;-53
2021/11/28 00:39:30;;;;;;;12.68;10.18;;;;;;;21.87;26.31;93116.88;5053766;28;20060;-51
2021/11/28 00:41:58;;;;;;;13.68;10.88;;;;;;;22.02;26.13;93112.25;5053075;28;20502;-51
2021/11/28 00:44:25;;;;;;;13.65;11.38;;;;;;;22.63;25.27;93118.72;5054087;28;20041;-53
2021/11/28 00:46:53;;;;;;;14.18;10.93;;;;;;;22.81;25.26;93117.84;5053053;28;20056;-52
2021/11/28 00:49:22;;;;;;;12.80;10.65;;;;;;;22.41;25.66;93115.47;5054071;28;20052;-53
2021/11/28 00:51:52;;;;;;;13.02;10.60;;;;;;;22.10;25.91;93114.50;5036087;28;20072;-53
2021/11/28 00:54:19;;;;;;;14.75;11.18;;;;;;;22.48;25.45;93106.69;5053989;28;20053;-53
2021/11/28 00:56:47;;;;;;;13.45;11.18;;;;;;;23.22;24.27;93104.59;5036432;28;20048;-52
2021/11/28 00:59:14;;;;;;;14.38;11.75;;;;;;;22.82;24.89;93114.06;5020068;28;20049;-51
2021/11/28 01:01:42;;;;;;;15.88;13.20;;;;;;;21.55;26.59;93101.03;5036065;28;20052;-55
2021/11/28 01:04:10;;;;;;;12.52;9.77;;;;;;;25.13;21.86;93109.38;5058720;28;20462;-52
2021/11/28 01:06:38;;;;;;;13.15;10.55;;;;;;;23.37;23.64;93097.94;5052830;28;20053;-51
2021/11/28 01:09:08;;;;;;;14.57;12.32;;;;;;;22.04;25.42;93092.09;5036379;28;20057;-53
2021/11/28 01:11:36;;;;;;;17.02;12.73;;;;;;;21.62;26.17;93089.63;5052544;28;20045;-51
2021/11/28 01:14:03;;;;;;;14.45;12.35;;;;;;;22.44;25.00;93095.31;5053355;28;20048;-52
2021/11/28 01:16:33;;;;;;;14.25;11.70;;;;;;;23.29;24.11;93088.50;5035895;28;20244;-51
2021/11/28 01:19:00;;;;;;;18.77;14.05;;;;;;;22.35;25.13;93087.75;5036380;28;20049;-52
2021/11/28 01:21:27;;;;;;;16.02;12.75;;;;;;;21.75;26.04;93093.38;5053910;28;20045;-53
2021/11/28 01:23:54;;;;;;;17.70;13.68;;;;;;;21.55;26.33;93077.84;5053942;28;20041;-55
2021/11/28 01:26:22;;;;;;;15.68;13.05;;;;;;;22.29;25.36;93085.88;5036412;28;20045;-55
2021/11/28 01:28:50;;;;;;;12.85;10.57;;;;;;;24.43;22.21;93077.22;5055816;28;20048;-51
2021/11/28 01:31:17;;;;;;;12.38;10.88;;;;;;;22.71;24.70;93082.16;5057412;28;20041;-53
2021/11/28 01:33:44;;;;;;;11.38;9.35;;;;;;;22.86;24.28;93066.84;5057390;28;20052;-50
2021/11/28 01:36:11;;;;;;;14.00;11.20;;;;;;;21.76;25.60;93095.63;5040204;28;20057;-52
2021/11/28 01:38:38;;;;;;;15.57;11.90;;;;;;;22.11;25.67;93113.34;5050354;28;20390;-51
2021/11/28 01:41:05;;;;;;;13.52;10.32;;;;;;;22.82;24.63;93114.06;5049313;28;20061;-52
2021/11/28 01:43:33;;;;;;;14.30;11.55;;;;;;;21.66;26.27;93109.00;5056904;28;20045;-52
2021/11/28 01:46:00;;;;;;;12.63;9.93;;;;;;;21.45;26.52;93099.94;5039584;28;20049;-51
2021/11/28 01:48:27;;;;;;;11.95;9.82;;;;;;;21.63;26.26;93086.59;5044390;28;20451;-55
2021/11/28 01:50:55;;;;;;;11.63;10.00;;;;;;;22.49;24.97;93102.88;5051105;28;20044;-52
2021/11/28 01:53:25;;;;;;;14.60;10.77;;;;;;;23.06;24.07;93102.44;5039524;28;20049;-53
2021/11/28 01:55:53;;;;;;;14.10;9.15;;;;;;;21.68;26.01;93090.75;5038921;28;20055;-51
2021/11/28 01:58:29;;;;;;;13.05;9.98;;;;;;;21.57;26.13;93092.66;5039446;28;20045;-52
2021/11/28 02:00:59;;;;;;;12.70;9.93;;;;;;;21.23;26.67;93095.78;5039170;28;20049;-52
2021/11/28 02:03:27;;;;;;;12.68;9.93;;;;;;;21.11;26.93;93102.28;5039238;28;20056;-53
2021/11/28 02:05:58;;;;;;;13.95;10.80;;;;;;;21.57;26.21;93105.97;5055669;28;20049;-51
2021/11/28 02:08:25;;;;;;;13.45;10.90;;;;;;;21.39;26.66;93114.00;5047965;28;20041;-51
2021/11/28 02:10:52;;;;;;;14.80;10.32;;;;;;;21.25;26.69;93098.84;5069260;28;20057;-53
2021/11/28 02:13:22;;;;;;;15.60;10.93;;;;;;;21.70;26.28;93091.13;5038327;28;20041;-53
2021/11/28 02:15:50;;;;;;;14.45;10.80;;;;;;;22.24;25.39;93075.66;5056281;28;20532;-53
2021/11/28 02:18:17;;;;;;;13.73;10.85;;;;;;;21.57;26.44;93084.69;5059940;28;20048;-51
2021/11/28 02:20:49;;;;;;;15.85;11.88;;;;;;;21.86;26.10;93088.78;5052248;28;20059;-53
2021/11/28 02:23:16;;;;;;;17.17;13.05;;;;;;;22.49;24.88;93084.22;5039076;28;20056;-51
2021/11/28 02:25:45;;;;;;;18.35;12.55;;;;;;;21.63;25.98;93075.94;5038706;28;20049;-52
2021/11/28 02:28:14;;;;;;;18.52;13.57;;;;;;;21.29;26.90;93073.00;5041748;28;20045;-52
2021/11/28 02:30:42;;;;;;;17.42;13.43;;;;;;;22.42;25.03;93077.06;5038728;28;20057;-51
2021/11/28 02:33:09;;;;;;;21.73;14.45;;;;;;;22.31;25.20;93064.97;5052827;28;20044;-53
2021/11/28 02:35:36;;;;;;;19.55;14.38;;;;;;;21.72;25.67;93040.94;5054896;28;20060;-55
2021/11/28 02:38:07;;;;;;;15.07;11.23;;;;;;;21.80;25.97;93034.44;5037053;28;20400;-52
2021/11/28 02:40:35;;;;;;;13.25;10.82;;;;;;;21.90;25.75;93036.31;5054696;28;20057;-56
2021/11/28 02:43:05;;;;;;;15.85;12.52;;;;;;;20.98;27.26;93041.94;5038424;28;20055;-53
2021/11/28 02:45:32;;;;;;;13.43;10.15;;;;;;;25.26;21.73;93056.06;5038525;28;20474;-51
2021/11/28 02:48:04;;;;;;;12.50;10.60;;;;;;;22.58;24.90;93052.56;5054929;28;20061;-51
2021/11/28 02:50:31;;;;;;;15.65;12.15;;;;;;;21.72;26.23;93062.22;5047394;28;20052;-51
2021/11/28 02:53:02;;;;;;;14.90;11.73;;;;;;;21.40;26.54;93052.47;5055840;28;20051;-52
2021/11/28 02:55:36;;;;;;;14.38;10.27;;;;;;;20.92;27.55;93060.16;5038122;28;20455;-56
2021/11/28 02:58:04;;;;;;;15.55;12.35;;;;;;;21.54;26.54;93052.41;5055935;28;20045;-53
2021/11/28 03:00:33;;;;;;;17.52;11.48;;;;;;;21.44;26.52;93042.59;5054551;28;20064;-55
2021/11/28 03:03:00;;;;;;;17.05;12.70;;;;;;;21.92;25.94;93049.97;5037811;28;20060;-51
2021/11/28 03:05:29;;;;;;;17.20;11.88;;;;;;;21.05;27.03;93028.63;5038022;28;20048;-51
2021/11/28 03:07:59;;;;;;;15.80;12.75;;;;;;;20.88;27.39;93017.69;5037872;28;20049;-55
2021/11/28 03:10:43;;;;;;;12.93;10.70;;;;;;;22.17;25.48;93043.78;5036864;28;20045;-50
2021/11/28 03:13:17;;;;;;;12.00;10.23;;;;;;;24.99;21.68;93042.78;5054656;28;20384;-51
2021/11/28 03:15:45;;;;;;;12.15;10.15;;;;;;;22.61;24.77;93027.81;5054472;28;20048;-52
2021/11/28 03:18:18;;;;;;;13.90;10.95;;;;;;;22.00;25.68;93035.47;5055658;28;20053;-52
2021/11/28 03:20:47;;;;;;;12.30;11.00;;;;;;;22.48;25.07;93029.47;5036843;28;20400;-51
2021/11/28 03:23:15;;;;;;;14.52;11.45;;;;;;;23.48;23.76;93020.50;5055392;28;20049;-51
2021/11/28 03:25:42;;;;;;;15.98;11.32;;;;;;;21.73;25.91;93005.22;5053800;28;20052;-53
2021/11/28 03:28:15;;;;;;;15.88;12.70;;;;;;;21.59;26.08;93002.63;5037767;28;20052;-46
2021/11/28 03:30:44;;;;;;;14.13;10.88;;;;;;;21.33;26.24;92996.66;5069744;28;20051;-41
2021/11/28 03:33:30;;;;;;;14.35;11.80;;;;;;;20.77;27.40;92989.59;5056456;28;20048;-59
2021/11/28 03:36:10;;;;;;;14.77;10.30;;;;;;;21.30;26.47;92999.34;5037770;28;20048;-50
2021/11/28 03:38:39;;;;;;;16.38;11.35;;;;;;;21.26;26.66;93017.22;5043604;28;20063;-56
2021/11/28 03:41:07;;;;;;;15.77;13.15;;;;;;;22.39;24.83;93021.19;5038581;28;20052;-59
2021/11/28 03:43:36;;;;;;;15.75;11.55;;;;;;;21.30;26.53;93032.00;5057090;28;20079;-66
2021/11/28 03:46:03;;;;;;;17.55;12.55;;;;;;;20.78;27.18;93049.53;5052691;28;20045;-56
2021/11/28 03:48:31;;;;;;;17.65;13.60;;;;;;;19.73;28.86;93057.00;5042537;28;20074;-64
2021/11/28 03:51:05;;;;;;;15.13;12.55;;;;;;;19.46;29.46;93049.31;5045442;28;20052;-66
2021/11/28 03:53:32;;;;;;;15.43;10.85;;;;;;;20.29;28.29;93057.09;5029698;28;20052;-65
2021/11/28 03:56:06;;;;;;;14.05;10.77;;;;;;;19.61;29.39;93055.47;5057055;28;20044;-65
2021/11/28 03:58:33;;;;;;;15.40;12.15;;;;;;;20.01;28.62;93057.06;5053602;28;20045;-64
2021/11/28 04:01:02;;;;;;;13.15;10.48;;;;;;;19.34;29.85;93066.31;5056132;28;20052;-63
2021/11/28 04:03:30;;;;;;;13.30;10.40;;;;;;;20.30;28.48;93079.88;5056481;28;20052;-65
2021/11/28 04:05:59;;;;;;;12.80;9.40;;;;;;;20.86;27.61;93094.31;5053550;28;20083;-66
2021/11/28 04:08:26;;;;;;;12.35;9.38;;;;;;;19.85;28.93;93107.06;5045942;28;20048;-63
2021/11/28 04:10:53;;;;;;;12.70;9.38;;;;;;;20.59;28.00;93127.72;5038623;28;20063;-67
2021/11/28 04:13:20;;;;;;;12.48;9.98;;;;;;;21.58;26.18;93136.72;5037096;28;20482;-64
2021/11/28 04:15:48;;;;;;;11.52;9.82;;;;;;;20.72;27.57;93142.13;5035867;28;20057;-66
2021/11/28 04:18:19;;;;;;;11.48;9.77;;;;;;;20.82;27.48;93167.19;5055315;28;20052;-64
2021/11/28 04:20:48;;;;;;;16.02;10.70;;;;;;;21.30;26.70;93164.88;5039726;28;20476;-62
2021/11/28 04:23:16;;;;;;;13.60;9.95;;;;;;;20.33;28.18;93142.06;5036922;28;20048;-66
2021/11/28 04:25:43;;;;;;;14.05;10.68;;;;;;;21.02;27.40;93156.91;5036699;28;20052;-61
2021/11/28 04:28:11;;;;;;;13.20;9.82;;;;;;;21.71;26.21;93135.94;5037053;28;20363;-61
2021/11/28 04:30:39;;;;;;;14.88;9.68;;;;;;;19.51;29.83;93138.31;5053469;28;20489;-66
2021/11/28 04:33:10;;;;;;;12.93;10.32;;;;;;;20.38;28.16;93143.59;5056069;28;20048;-66
2021/11/28 04:35:37;;;;;;;13.02;10.45;;;;;;;19.81;29.10;93127.50;5056517;28;20063;-66
2021/11/28 04:38:06;;;;;;;13.38;9.93;;;;;;;21.76;26.37;93140.09;5049176;28;20052;-57
2021/11/28 04:40:35;;;;;;;12.40;8.13;;;;;;;23.63;23.54;93145.31;5050607;28;20069;-63
2021/11/28 04:43:03;;;;;;;12.15;8.93;;;;;;;21.77;25.97;93144.28;5036885;28;20063;-64
2021/11/28 04:45:30;;;;;;;9.48;8.48;;;;;;;20.48;28.12;93145.50;5036596;28;20060;-66
2021/11/28 04:48:02;;;;;;;11.75;9.02;;;;;;;20.80;27.64;93156.16;5036170;28;20451;-64
2021/11/28 04:50:30;;;;;;;10.32;8.88;;;;;;;20.67;27.84;93147.81;5036239;28;20057;-66
2021/11/28 04:52:58;;;;;;;11.23;8.50;;;;;;;19.99;28.77;93152.19;5073013;28;20470;-65
2021/11/28 04:55:25;;;;;;;11.48;8.93;;;;;;;19.26;29.97;93143.50;5052889;28;20464;-61
2021/11/28 04:57:52;;;;;;;11.30;8.73;;;;;;;21.92;26.41;93153.72;5051443;28;20352;-64
2021/11/28 05:00:22;;;;;;;13.50;8.85;;;;;;;21.08;27.09;93147.41;5036455;28;20041;-63
2021/11/28 05:02:55;;;;;;;11.57;8.65;;;;;;;19.33;30.04;93141.63;5036571;28;20044;-65
2021/11/28 05:05:24;;;;;;;11.73;9.40;;;;;;;20.12;28.52;93140.09;5023997;28;20048;-60
2021/11/28 05:07:54;;;;;;;13.17;8.90;;;;;;;21.21;26.98;93140.59;5058689;28;20533;-64
2021/11/28 05:10:21;;;;;;;12.00;8.93;;;;;;;20.26;28.60;93142.78;5040089;28;20061;-65
2021/11/28 05:12:54;;;;;;;;;;;;;;;19.77;29.41;93148.69;5040649;28;20052;-64
2021/11/28 05:15:21;;;;;;;10.40;9.00;;;;;;;22.89;24.90;93151.31;5041154;28;19919;-65
2021/11/28 05:18:23;;;;;;;13.75;8.18;;;;;;;23.36;23.89;93157.75;4996173;28;20473;-65
2021/11/28 05:20:57;;;;;;;9.52;7.20;;;;;;;23.32;23.92;93163.13;5030723;28;20455;-65
2021/11/28 05:23:24;;;;;;;11.88;8.93;;;;;;;24.39;22.63;93177.25;5039810;28;20063;-64
2021/11/28 05:25:51;;;;;;;7.90;7.00;;;;;;;23.49;23.42;93158.03;5042404;28;20044;-65
2021/11/28 05:28:19;;;;;;;10.52;8.20;;;;;;;21.24;27.13;93179.72;5052028;28;20060;-64
2021/11/28 05:30:46;;;;;;;10.10;7.78;;;;;;;20.70;27.57;93180.81;5040234;28;20462;-64
2021/11/28 05:33:51;;;;;;;9.68;7.07;;;;;;;21.24;26.98;93172.50;4996309;28;20046;-57
2021/11/28 05:36:50;;;;;;;12.55;8.15;;;;;;;20.31;28.37;93182.25;4995867;28;20408;-66
2021/11/28 05:39:17;;;;;;;12.80;7.43;;;;;;;20.36;28.49;93172.38;5036227;28;20087;-65
2021/11/28 05:41:44;;;;;;;11.00;7.85;;;;;;;20.65;27.74;93179.28;5039454;28;20048;-62
2021/11/28 05:44:12;;;;;;;8.98;6.97;;;;;;;21.09;27.14;93170.22;5048912;28;20451;-67
2021/11/28 05:46:54;;;;;;;;;;;;;;;20.37;28.51;93163.28;5040392;28;20049;-66
2021/11/28 05:49:30;;;;;;;10.25;7.63;;;;;;;20.51;28.21;93152.72;5039351;28;20232;-65
2021/11/28 05:52:11;;;;;;;11.27;6.95;;;;;;;19.83;29.73;93136.59;5039383;28;20057;-66
2021/11/28 05:54:39;;;;;;;9.43;6.90;;;;;;;21.29;27.30;93158.06;5039670;28;20048;-65
2021/11/28 05:57:07;;;;;;;9.00;6.30;;;;;;;21.06;27.58;93139.06;5039560;28;20048;-65
2021/11/28 05:59:34;;;;;;;7.10;5.88;;;;;;;22.30;25.84;93148.63;5039323;28;20049;-60
2021/11/28 06:02:01;;;;;;;9.40;6.75;;;;;;;21.98;26.05;93144.19;5048712;28;20367;-66
2021/11/28 06:04:28;;;;;;;10.23;6.63;;;;;;;21.88;26.32;93139.69;5059429;28;20048;-66
2021/11/28 06:07:18;;;;;;;8.20;6.40;;;;;;;21.09;27.43;93141.75;5076685;28;20455;-65
2021/11/28 06:09:46;;;;;;;14.02;10.98;;;;;;;21.08;27.71;93136.78;5046357;28;20063;-62
2021/11/28 06:12:17;;;;;;;11.15;8.85;;;;;;;21.12;27.27;93158.81;5057088;28;20056;-65
2021/11/28 06:14:45;;;;;;;8.30;6.68;;;;;;;21.62;26.54;93158.78;5038681;28;20047;-64
2021/11/28 06:17:18;;;;;;;7.85;6.55;;;;;;;21.30;27.79;93146.28;5039101;28;20060;-65
2021/11/28 06:20:06;;;;;;;4.38;3.28;;;;;;;23.87;24.17;93140.13;5055843;28;20049;-62
2021/11/28 06:23:12;;;;;;;8.52;5.68;;;;;;;21.69;26.68;93153.44;5050278;28;20048;-62
2021/11/28 06:25:39;;;;;;;8.65;6.80;;;;;;;21.97;26.45;93163.97;5038748;28;20044;-64
2021/11/28 06:28:07;;;;;;;9.50;6.78;;;;;;;21.26;27.57;93180.09;5038976;28;20045;-63
2021/11/28 06:30:35;;;;;;;8.15;6.13;;;;;;;20.41;28.78;93195.94;5037741;28;20056;-66
2021/11/28 06:33:17;;;;;;;10.45;6.70;;;;;;;20.74;28.19;93182.34;5055515;28;20059;-67
2021/11/28 06:36:03;;;;;;;9.13;6.57;;;;;;;20.87;28.27;93201.31;5055806;28;20056;-64
2021/11/28 06:38:56;;;;;;;8.32;6.80;;;;;;;20.75;28.29;93215.72;5051602;28;20049;-66
2021/11/28 06:41:41;;;;;;;10.63;8.02;;;;;;;20.30;29.17;93217.88;5055636;28;20044;-63
2021/11/28 06:44:09;;;;;;;10.10;5.85;;;;;;;21.43;27.35;93221.09;5038848;28;20056;-65
2021/11/28 06:46:37;;;;;;;10.15;6.85;;;;;;;20.55;28.63;93217.19;5038456;28;20045;-66
2021/11/28 06:49:05;;;;;;;9.10;6.43;;;;;;;20.66;28.37;93207.38;5038291;28;20072;-64
2021/11/28 06:51:38;;;;;;;11.27;6.95;;;;;;;20.63;28.31;93202.81;5055747;28;20047;-63
2021/11/28 06:54:26;;;;;;;11.98;7.28;;;;;;;21.05;28.13;93209.28;5055578;28;20045;-65
2021/11/28 06:56:59;;;;;;;10.40;6.80;;;;;;;21.91;26.59;93202.00;5038269;28;20049;-66
2021/11/28 06:59:31;;;;;;;10.90;6.70;;;;;;;21.97;27.17;93209.19;5050929;28;20049;-65
2021/11/28 07:01:58;;;;;;;8.95;6.72;;;;;;;24.38;23.62;93223.81;5042586;28;20047;-65
2021/11/28 07:04:58;;;;;;;7.95;5.22;;;;;;;22.39;26.84;93194.22;5055708;28;20052;-66
2021/11/28 07:07:37;;;;;;;8.13;6.05;;;;;;;22.36;27.28;93201.06;5037733;28;20044;-66
2021/11/28 07:10:07;;;;;;;8.25;5.47;;;;;;;23.48;25.15;93207.94;5037486;28;20059;-66
2021/11/28 07:12:34;;;;;;;7.72;5.13;;;;;;;23.51;25.83;93223.16;5050100;28;20056;-66
2021/11/28 07:15:01;;;;;;;9.00;5.60;;;;;;;23.14;26.59;93210.50;5064163;28;20059;-66
2021/11/28 07:17:28;;;;;;;9.32;5.80;;;;;;;22.86;25.79;93235.44;5057938;28;20044;-65
2021/11/28 07:19:59;;;;;;;9.13;6.30;;;;;;;23.29;26.06;93217.25;5050118;28;20036;-66
2021/11/28 07:22:40;;;;;;;7.25;5.78;;;;;;;23.02;25.50;93195.00;5040680;28;20056;-47
2021/11/28 07:25:08;;;;;;;8.35;5.78;;;;;;;22.90;26.21;93180.25;5057384;28;20383;-54
2021/11/28 07:27:36;;;;;;;8.82;6.68;;;;;;;22.82;26.25;93189.41;5056970;28;20047;-56
2021/11/28 07:30:04;;;;;;;9.52;7.13;;;;;;;23.90;24.22;93196.09;5056396;28;20052;-57
2021/11/28 07:32:34;;;;;;;11.18;7.50;;;;;;;22.92;26.21;93177.19;5022078;28;20049;-65
2021/11/28 07:35:19;;;;;;;11.50;8.02;;;;;;;23.58;24.72;93183.09;5055223;28;20490;-51
2021/11/28 07:38:16;;;;;;;11.07;7.93;;;;;;;23.30;25.33;93149.44;5033107;28;20044;-52
2021/11/28 07:40:44;;;;;;;10.68;7.72;;;;;;;22.51;26.53;93169.81;5054248;28;20064;-49
2021/11/28 07:43:33;;;;;;;9.98;6.93;;;;;;;24.38;23.82;93181.09;5052393;28;20049;-53
2021/11/28 07:46:33;;;;;;;9.60;7.10;;;;;;;22.65;26.39;93172.41;5053739;28;20056;-54
2021/11/28 07:49:01;;;;;;;9.27;7.03;;;;;;;23.70;24.83;93187.19;5036687;28;20045;-50
2021/11/28 07:51:29;;;;;;;8.02;6.00;;;;;;;24.51;23.10;93185.50;5036733;28;20060;-51
2021/11/28 07:53:57;;;;;;;9.07;6.22;;;;;;;22.95;25.75;93171.06;5054002;28;20051;-51
2021/11/28 07:56:27;;;;;;;10.38;6.88;;;;;;;22.67;26.57;93162.09;5044999;28;20051;-52
2021/11/28 07:59:13;;;;;;;7.47;5.88;;;;;;;23.94;24.60;93148.81;5054727;28;20052;-52
2021/11/28 08:01:44;;;;;;;7.38;5.10;;;;;;;23.26;25.05;93145.28;5036855;28;20384;-55
2021/11/28 08:04:48;;;;;;;8.75;5.53;;;;;;;22.67;25.82;93158.69;4989512;28;20042;-55
2021/11/28 08:07:34;;;;;;;7.03;5.28;;;;;;;23.58;24.85;93175.09;5051830;28;20052;-61
2021/11/28 08:10:21;;;;;;;6.60;5.10;;;;;;;24.99;22.89;93163.09;5057541;28;20064;-67
2021/11/28 08:12:48;;;;;;;6.60;5.60;;;;;;;23.79;24.81;93171.47;5054655;28;20060;-56
2021/11/28 08:15:21;;;;;;;7.57;6.13;;;;;;;22.95;26.54;93160.41;5053442;28;20391;-56
2021/11/28 08:17:49;;;;;;;10.25;5.53;;;;;;;23.04;26.24;93164.13;5054117;28;20048;-57
2021/11/28 08:20:18;;;;;;;11.77;6.18;;;;;;;23.10;26.07;93161.03;5036637;28;20049;-47
2021/11/28 08:22:45;;;;;;;8.55;6.00;;;;;;;23.73;25.55;93159.72;5053622;28;20367;-47
2021/11/28 08:25:14;;;;;;;7.32;5.38;;;;;;;23.58;24.97;93167.09;5070812;28;20371;-46
2021/11/28 08:27:42;;;;;;;6.88;5.30;;;;;;;25.08;23.13;93200.75;5055137;28;20368;-49
2021/11/28 08:30:15;;;;;;;9.27;6.68;;;;;;;24.35;24.26;93196.00;5054096;28;20359;-53
2021/11/28 08:33:08;;;;;;;7.75;5.53;;;;;;;24.12;25.19;93190.53;5053196;28;20060;-48
2021/11/28 08:35:53;;;;;;;5.78;4.03;;;;;;;24.28;25.00;93188.09;5054303;28;20044;-66
2021/11/28 08:38:20;;;;;;;7.93;4.72;;;;;;;23.95;26.22;93171.69;5060515;28;20066;-64
2021/11/28 08:40:50;;;;;;;10.00;5.45;;;;;;;23.98;26.02;93172.78;5070302;28;20067;-44
2021/11/28 08:43:17;;;;;;;7.78;5.35;;;;;;;24.02;26.02;93180.75;5059462;28;20068;-53
2021/11/28 08:45:44;;;;;;;9.55;5.60;;;;;;;23.61;25.94;93184.22;5053448;28;20371;-54
2021/11/28 08:48:12;;;;;;;10.25;7.00;;;;;;;23.55;25.64;93191.88;5054050;28;20375;-54
2021/11/28 08:50:39;;;;;;;12.00;7.32;;;;;;;23.44;26.23;93191.22;5053970;28;20041;-54
2021/11/28 08:53:06;;;;;;;13.10;7.47;;;;;;;23.71;25.56;93194.03;5054998;28;20045;-51
2021/11/28 08:55:33;;;;;;;12.32;7.30;;;;;;;24.82;23.68;93199.56;5052609;28;20056;-53
2021/11/28 08:58:01;;;;;;;10.48;8.52;;;;;;;23.94;25.75;93196.06;5053754;28;20044;-53
2021/11/28 09:00:28;;;;;;;16.58;6.35;;;;;;;24.96;22.52;93198.59;5052737;28;20045;-53
2021/11/28 09:02:55;;;;;;;4.63;2.47;;;;;;;26.57;19.95;93181.25;5054107;28;20056;-51
2021/11/28 09:05:24;;;;;;;5.93;2.92;;;;;;;25.75;21.29;93176.72;5052900;28;20064;-52
2021/11/28 09:07:53;;;;;;;6.25;3.80;;;;;;;25.38;21.64;93207.16;5052458;28;20497;-54
2021/11/28 09:10:20;;;;;;;10.80;5.30;;;;;;;25.54;21.83;93177.09;5052617;28;20057;-55
2021/11/28 09:12:47;;;;;;;7.07;3.92;;;;;;;26.30;20.83;93207.44;5074121;28;20051;-54
2021/11/28 09:15:16;;;;;;;5.85;2.92;;;;;;;27.45;19.29;93199.16;5073077;28;20040;-58
2021/11/28 09:17:49;;;;;;;6.80;4.10;;;;;;;27.63;19.30;93220.25;5052975;28;20057;-54
2021/11/28 09:20:21;;;;;;;4.80;3.25;;;;;;;27.37;19.27;93195.16;5054225;28;20041;-52
2021/11/28 09:25:17;;;;;;;7.75;5.30;;;;;;;26.31;21.02;93198.97;5053871;28;20053;-54
2021/11/28 09:27:46;;;;;;;7.05;4.05;;;;;;;28.68;18.32;93203.63;5053912;28;20052;-54
2021/11/28 09:30:15;;;;;;;3.97;2.85;;;;;;;26.77;19.63;93183.09;5054117;28;20045;-59
2021/11/28 09:32:42;;;;;;;3.05;1.40;;;;;;;26.22;19.94;93150.56;5053955;28;20045;-59
2021/11/28 09:35:10;;;;;;;2.85;1.45;;;;;;;26.98;18.44;93151.19;5053184;28;20041;-53
2021/11/28 09:37:37;;;;;;;3.33;1.85;;;;;;;26.57;18.91;93169.78;5054904;28;20060;-57
2021/11/28 09:40:06;;;;;;;1.50;0.90;;;;;;;26.35;19.01;93148.78;5073956;28;20048;-57
2021/11/28 09:42:40;;;;;;;1.77;0.90;;;;;;;28.12;17.12;93142.22;5056282;28;20447;-56
2021/11/28 09:45:08;;;;;;;1.80;0.95;;;;;;;27.27;17.90;93129.09;5052935;28;20060;-57
2021/11/28 09:47:37;;;;;;;1.30;0.70;;;;;;;27.67;17.88;93147.66;5052667;28;20064;-56
2021/11/28 09:50:08;;;;;;;1.25;0.70;;;;;;;28.57;16.79;93139.41;5055567;28;20067;-55
2021/11/28 09:52:35;;;;;;;1.25;0.90;;;;;;;29.80;15.41;93138.56;5073214;28;20374;-54
2021/11/28 09:55:10;;;;;;;1.63;1.10;;;;;;;29.70;15.38;93159.31;5056236;28;20044;-55
2021/11/28 09:57:38;;;;;;;2.45;0.88;;;;;;;30.61;14.47;93158.44;5056679;28;20056;-54
2021/11/28 10:00:08;;;;;;;2.45;0.50;;;;;;;30.60;14.50;93127.22;5056853;28;20059;-55
2021/11/28 10:02:42;;;;;;;2.45;0.85;;;;;;;29.87;15.08;93124.84;5056868;28;20052;-53
2021/11/28 10:05:14;;;;;;;1.02;0.60;;;;;;;30.36;14.91;93129.66;5056923;28;20056;-55
2021/11/28 10:07:43;;;;;;;0.75;0.50;;;;;;;31.50;13.95;93119.88;5058323;28;20053;-55
2021/11/28 10:10:11;;;;;;;2.42;1.50;;;;;;;28.20;16.57;93122.03;5065948;28;20049;-56
2021/11/28 10:12:44;;;;;;;1.48;0.73;;;;;;;29.06;15.79;93112.94;5055243;28;20060;-56
2021/11/28 10:15:19;;;;;;;3.22;0.88;;;;;;;27.26;17.54;93106.88;5056616;28;20041;-57
2021/11/28 10:17:47;;;;;;;11.55;2.78;;;;;;;27.40;17.68;93078.94;5056337;28;20733;-48
2021/11/28 10:20:16;;;;;;;0.95;0.50;;;;;;;28.81;16.00;93089.50;5056809;28;20045;-55
2021/11/28 10:22:46;;;;;;;1.33;0.60;;;;;;;29.25;15.51;93105.03;5055338;28;20049;-54
2021/11/28 10:25:26;;;;;;;1.80;0.80;;;;;;;29.99;14.90;93072.13;5055624;28;20048;-53
2021/11/28 10:27:56;;;;;;;1.30;0.80;;;;;;;29.82;14.76;93087.72;5055543;28;20056;-56
2021/11/28 10:30:26;;;;;;;4.30;1.00;;;;;;;29.17;15.31;93089.13;5056412;28;20056;-56
2021/11/28 10:32:54;;;;;;;1.20;0.70;;;;;;;28.12;15.99;93078.50;5075091;28;20044;-54
2021/11/28 10:35:22;;;;;;;2.97;0.98;;;;;;;27.30;17.23;93072.66;5064225;28;20041;-52
2021/11/28 10:37:51;;;;;;;2.95;0.90;;;;;;;28.46;15.85;93064.47;5055425;28;20055;-53
2021/11/28 10:40:27;;;;;;;2.10;1.00;;;;;;;28.70;15.54;93067.56;5056489;28;20061;-52
2021/11/28 10:43:12;;;;;;;2.13;1.10;;;;;;;26.71;17.57;93062.22;5056014;28;20040;-53
2021/11/28 10:45:49;;;;;;;1.80;0.70;;;;;;;28.16;15.85;93038.88;5056001;28;20044;-53
2021/11/28 10:48:23;;;;;;;1.30;0.90;;;;;;;27.69;16.49;93065.53;5055923;28;20060;-54
2021/11/28 10:50:50;;;;;;;1.40;0.80;;;;;;;30.69;13.65;93071.41;5055953;28;20045;-53
2021/11/28 10:53:20;;;;;;;1.20;0.60;;;;;;;31.04;13.43;93079.31;5055131;28;20068;-53
2021/11/28 10:55:53;;;;;;;2.65;1.00;;;;;;;29.06;15.06;93071.81;5055785;28;20060;-55
2021/11/28 10:58:25;;;;;;;1.90;0.65;;;;;;;29.60;14.51;93138.09;5055664;28;20048;-51
2021/11/28 11:00:52;;;;;;;3.38;0.93;;;;;;;29.90;14.23;93078.19;5060849;28;20540;-52
2021/11/28 11:03:21;;;;;;;1.63;0.70;;;;;;;31.17;13.46;93066.44;5075023;28;20056;-55
2021/11/28 11:05:51;;;;;;;2.78;1.05;;;;;;;30.12;14.31;93070.09;5075217;28;20052;-53
2021/11/28 11:08:25;;;;;;;1.73;1.00;;;;;;;29.69;14.63;93098.56;5066690;28;20067;-52
2021/11/28 11:11:13;;;;;;;2.65;0.80;;;;;;;29.73;14.57;93061.47;5055344;28;20053;-53
2021/11/28 11:14:02;;;;;;;4.30;1.08;;;;;;;28.91;14.90;93049.28;5055516;28;20045;-55
2021/11/28 11:16:41;;;;;;;3.58;1.77;;;;;;;29.04;15.00;93058.06;5054624;28;20041;-53
2021/11/28 11:19:31;;;;;;;3.03;1.95;;;;;;;31.12;13.68;93080.50;5056419;28;20049;-54
2021/11/28 11:22:07;;;;;;;3.45;1.90;;;;;;;30.07;14.66;93076.06;5061857;28;20041;-53
2021/11/28 11:24:36;;;;;;;3.03;1.38;;;;;;;29.84;14.86;93109.56;5060057;28;20490;-53
2021/11/28 11:27:15;;;;;;;3.30;1.40;;;;;;;28.16;16.56;93068.41;5055928;28;20052;-56
2021/11/28 11:29:48;;;;;;;3.97;1.63;;;;;;;28.70;16.08;93056.06;5055514;28;20049;-53
2021/11/28 11:32:18;;;;;;;4.13;1.38;;;;;;;28.81;15.74;93129.81;5053821;28;20047;-53
2021/11/28 11:34:57;;;;;;;3.35;1.70;;;;;;;28.82;16.12;93072.16;5055202;28;20056;-53
2021/11/28 11:37:26;;;;;;;2.55;0.90;;;;;;;29.95;14.86;93080.34;5055552;28;20321;-54
2021/11/28 11:39:56;;;;;;;4.68;0.80;;;;;;;30.52;14.04;93066.69;5070036;28;20056;-54
2021/11/28 11:42:27;;;;;;;2.30;0.90;;;;;;;29.38;15.09;93060.72;5054699;28;20452;-53
2021/11/28 11:44:55;;;;;;;1.60;0.90;;;;;;;29.97;14.73;93077.94;5054904;28;20055;-54
2021/11/28 11:47:23;;;;;;;3.88;1.10;;;;;;;31.45;13.01;93069.16;5054360;28;20048;-57
2021/11/28 11:49:51;;;;;;;2.92;1.45;;;;;;;31.37;13.73;93076.06;5053953;28;20095;-53
2021/11/28 11:52:19;;;;;;;2.70;1.60;;;;;;;30.95;13.89;93071.91;5053332;28;20442;-59